createdAt,value
2022-10-10T00:00:10.180Z,11.00
2022-10-10T00:02:41.915Z,11.00
2022-10-10T00:05:13.650Z,11.00
2022-10-10T00:07:45.504Z,11.00
2022-10-10T00:10:17.499Z,11.00
2022-10-10T00:12:49.567Z,11.00
2022-10-10T00:15:21.706Z,11.00
2022-10-10T00:17:53.635Z,11.00
2022-10-10T00:20:25.407Z,11.00
2022-10-10T00:22:57.115Z,11.10
2022-10-10T00:25:28.934Z,11.10
2022-10-10T00:28:04.672Z,11.10
2022-10-10T00:30:36.536Z,11.10
2022-10-10T00:33:08.988Z,11.10
2022-10-10T00:35:41.193Z,11.10
2022-10-10T00:38:13.628Z,11.10
2022-10-10T00:40:56.595Z,11.10
2022-10-10T00:43:29.264Z,11.10
2022-10-10T00:46:01.232Z,11.00
2022-10-10T00:48:40.858Z,11.00
2022-10-10T00:51:16.546Z,11.00
2022-10-10T00:54:02.184Z,11.00
2022-10-10T00:56:41.531Z,11.00
2022-10-10T00:59:14.664Z,11.00
2022-10-10T01:01:47.239Z,11.00
2022-10-10T01:04:43.071Z,11.00
2022-10-10T01:07:25.526Z,11.00
2022-10-10T01:10:02.160Z,11.00
2022-10-10T01:13:21.074Z,11.00
2022-10-10T01:16:37.999Z,11.00
2022-10-10T01:19:12.664Z,11.00
2022-10-10T01:22:21.847Z,11.00
2022-10-10T01:25:19.842Z,11.00
2022-10-10T01:28:02.836Z,11.00
2022-10-10T01:30:35.413Z,11.00
2022-10-10T01:33:13.080Z,11.00
2022-10-10T01:35:53.587Z,11.00
2022-10-10T01:38:38.632Z,11.00
2022-10-10T01:41:13.326Z,11.00
2022-10-10T01:43:45.030Z,11.00
2022-10-10T01:46:19.622Z,11.00
2022-10-10T01:48:54.573Z,11.00
2022-10-10T01:51:37.923Z,11.00
2022-10-10T01:54:34.232Z,11.00
2022-10-10T01:57:19.783Z,11.00
2022-10-10T02:00:10.715Z,11.00
2022-10-10T02:03:09.882Z,11.00
2022-10-10T02:06:00.821Z,11.00
2022-10-10T02:08:35.930Z,11.00
2022-10-10T02:11:13.113Z,11.00
2022-10-10T02:13:49.279Z,11.00
2022-10-10T02:16:35.006Z,11.00
2022-10-10T02:19:10.407Z,11.00
2022-10-10T02:21:42.914Z,11.00
2022-10-10T02:24:15.814Z,11.00
2022-10-10T02:26:56.239Z,11.00
2022-10-10T02:29:33.334Z,11.00
2022-10-10T02:32:23.142Z,11.00
2022-10-10T02:34:57.899Z,11.00
2022-10-10T02:37:30.635Z,11.00
2022-10-10T02:40:05.260Z,11.00
2022-10-10T02:42:38.943Z,11.10
2022-10-10T02:45:11.470Z,11.20
2022-10-10T02:47:44.894Z,11.10
2022-10-10T02:50:16.744Z,11.10
2022-10-10T02:52:48.858Z,11.10
2022-10-10T02:55:21.187Z,11.10
2022-10-10T02:57:53.982Z,11.00
2022-10-10T03:00:25.804Z,11.00
2022-10-10T03:02:57.526Z,11.00
2022-10-10T03:05:29.174Z,11.00
2022-10-10T03:08:01.952Z,11.10
2022-10-10T03:10:33.752Z,11.10
2022-10-10T03:13:05.556Z,11.10
2022-10-10T03:15:38.312Z,11.10
2022-10-10T03:18:10.003Z,11.10
2022-10-10T03:20:41.886Z,11.10
2022-10-10T03:23:14.196Z,11.10
2022-10-10T03:25:45.933Z,11.20
2022-10-10T03:28:17.817Z,11.20
2022-10-10T03:30:49.688Z,11.30
2022-10-10T03:33:21.966Z,11.30
2022-10-10T03:35:53.736Z,11.30
2022-10-10T03:38:25.539Z,11.30
2022-10-10T03:40:57.256Z,11.30
2022-10-10T03:43:28.999Z,11.30
2022-10-10T03:46:00.753Z,11.30
2022-10-10T03:48:32.536Z,11.30
2022-10-10T03:51:06.428Z,11.40
2022-10-10T03:53:38.540Z,11.40
2022-10-10T03:56:10.219Z,11.40
2022-10-10T03:58:41.899Z,11.30
2022-10-10T04:01:13.662Z,11.30
2022-10-10T04:03:49.883Z,11.40
2022-10-10T04:06:23.762Z,11.40
2022-10-10T04:08:55.503Z,11.40
2022-10-10T04:11:27.473Z,11.50
2022-10-10T04:13:59.185Z,11.60
2022-10-10T04:16:30.908Z,11.70
2022-10-10T04:19:02.608Z,11.80
2022-10-10T04:21:34.586Z,11.80
2022-10-10T04:24:06.603Z,11.70
2022-10-10T04:26:38.326Z,11.70
2022-10-10T04:29:10.131Z,11.70
2022-10-10T04:31:41.846Z,11.70
2022-10-10T04:34:15.044Z,11.70
2022-10-10T04:36:46.736Z,11.70
2022-10-10T04:39:18.465Z,11.70
2022-10-10T04:41:50.420Z,11.60
2022-10-10T04:44:22.192Z,11.60
2022-10-10T04:46:53.932Z,11.50
2022-10-10T04:49:25.843Z,11.50
2022-10-10T04:51:57.579Z,11.40
2022-10-10T04:54:29.351Z,11.40
2022-10-10T04:57:01.082Z,11.40
2022-10-10T04:59:33.072Z,11.40
2022-10-10T05:02:04.910Z,11.30
2022-10-10T05:04:36.620Z,11.30
2022-10-10T05:07:08.314Z,11.30
2022-10-10T05:09:40.025Z,11.30
2022-10-10T05:12:11.678Z,11.30
2022-10-10T05:14:47.290Z,11.30
2022-10-10T05:17:20.472Z,11.30
2022-10-10T05:19:52.345Z,11.30
2022-10-10T05:22:24.270Z,11.30
2022-10-10T05:24:55.988Z,11.30
2022-10-10T05:27:29.855Z,11.30
2022-10-10T05:30:01.583Z,11.30
2022-10-10T05:32:33.303Z,11.30
2022-10-10T05:35:05.673Z,11.30
2022-10-10T05:37:37.907Z,11.30
2022-10-10T05:40:09.834Z,11.30
2022-10-10T05:42:41.621Z,11.40
2022-10-10T05:45:13.386Z,11.40
2022-10-10T05:47:45.146Z,11.50
2022-10-10T05:50:31.792Z,11.60
2022-10-10T05:53:03.593Z,11.60
2022-10-10T05:55:35.809Z,11.70
2022-10-10T05:58:07.635Z,11.70
2022-10-10T06:00:41.049Z,11.70
2022-10-10T06:03:16.315Z,11.80
2022-10-10T06:05:51.650Z,11.90
2022-10-10T06:08:23.467Z,12.10
2022-10-10T06:11:00.382Z,12.20
2022-10-10T06:13:32.302Z,12.20
2022-10-10T06:16:05.187Z,12.20
2022-10-10T06:18:37.308Z,12.20
2022-10-10T06:21:09.161Z,12.20
2022-10-10T06:23:42.074Z,12.30
2022-10-10T06:26:14.107Z,12.30
2022-10-10T06:28:46.250Z,12.30
2022-10-10T06:31:18.051Z,12.40
2022-10-10T06:33:49.770Z,12.40
2022-10-10T06:36:21.483Z,12.50
2022-10-10T06:38:53.283Z,12.50
2022-10-10T06:41:25.003Z,12.60
2022-10-10T06:43:56.687Z,12.60
2022-10-10T06:46:29.479Z,12.60
2022-10-10T06:49:01.276Z,12.70
2022-10-10T06:51:33.135Z,12.70
2022-10-10T06:54:05.291Z,12.80
2022-10-10T06:56:37.035Z,12.90
2022-10-10T06:59:09.969Z,13.10
2022-10-10T07:01:43.752Z,13.10
2022-10-10T07:04:15.680Z,13.30
2022-10-10T07:06:47.397Z,13.40
2022-10-10T07:09:20.156Z,13.50
2022-10-10T07:11:51.847Z,13.60
2022-10-10T07:14:24.441Z,13.60
2022-10-10T07:16:56.133Z,13.70
2022-10-10T07:19:28.022Z,13.70
2022-10-10T07:21:59.723Z,13.70
2022-10-10T07:24:31.520Z,13.70
2022-10-10T07:27:08.598Z,13.70
2022-10-10T07:29:41.437Z,13.70
2022-10-10T07:32:13.223Z,13.70
2022-10-10T07:34:44.878Z,13.70
2022-10-10T07:37:16.627Z,13.70
2022-10-10T07:39:48.297Z,13.70
2022-10-10T07:42:20.194Z,13.80
2022-10-10T07:44:51.871Z,13.80
2022-10-10T07:47:23.639Z,13.80
2022-10-10T07:49:55.375Z,13.80
2022-10-10T07:52:27.109Z,13.90
2022-10-10T07:54:59.030Z,14.00
2022-10-10T07:57:34.978Z,14.00
2022-10-10T08:00:11.021Z,14.10
2022-10-10T08:02:42.912Z,14.10
2022-10-10T08:05:14.764Z,14.20
2022-10-10T08:07:46.489Z,14.20
2022-10-10T08:10:18.203Z,14.20
2022-10-10T08:12:51.025Z,14.20
2022-10-10T08:15:22.783Z,14.30
2022-10-10T08:17:54.552Z,14.20
2022-10-10T08:20:26.284Z,14.20
2022-10-10T08:22:59.004Z,14.30
2022-10-10T08:25:30.695Z,14.40
2022-10-10T08:28:02.387Z,14.40
2022-10-10T08:30:34.209Z,14.60
2022-10-10T08:33:06.180Z,14.70
2022-10-10T08:35:39.217Z,14.70
2022-10-10T08:38:10.996Z,14.90
2022-10-10T08:40:47.556Z,15.00
2022-10-10T08:43:32.492Z,15.00
2022-10-10T08:46:21.619Z,15.20
2022-10-10T08:48:57.274Z,15.30
2022-10-10T08:51:33.047Z,15.50
2022-10-10T08:54:07.039Z,15.70
2022-10-10T08:56:39.728Z,15.90
2022-10-10T08:59:26.543Z,16.00
2022-10-10T09:02:26.069Z,16.20
2022-10-10T09:04:59.098Z,16.30
2022-10-10T09:07:37.643Z,16.50
2022-10-10T09:10:13.450Z,16.60
2022-10-10T09:13:11.207Z,16.60
2022-10-10T09:16:07.934Z,16.60
2022-10-10T09:18:54.394Z,16.60
2022-10-10T09:21:31.127Z,16.80
2022-10-10T09:24:17.959Z,16.80
2022-10-10T09:27:04.637Z,17.00
2022-10-10T09:29:52.802Z,17.20
2022-10-10T09:32:28.887Z,17.30
2022-10-10T09:35:14.343Z,17.50
2022-10-10T09:37:49.631Z,17.80
2022-10-10T09:40:43.351Z,17.80
2022-10-10T09:43:19.511Z,17.80
2022-10-10T09:45:53.623Z,17.80
2022-10-10T09:48:47.778Z,17.90
2022-10-10T09:51:20.358Z,18.00
2022-10-10T09:53:52.103Z,18.10
2022-10-10T09:56:34.924Z,18.20
2022-10-10T09:59:26.670Z,18.10
2022-10-10T10:02:03.867Z,18.10
2022-10-10T10:04:35.540Z,18.10
2022-10-10T10:07:31.940Z,18.30
2022-10-10T10:10:22.179Z,18.40
2022-10-10T10:12:55.001Z,18.50
2022-10-10T10:15:29.982Z,18.60
2022-10-10T10:18:16.848Z,18.50
2022-10-10T10:21:13.492Z,18.40
2022-10-10T10:23:58.885Z,18.40
2022-10-10T10:26:48.126Z,18.50
2022-10-10T10:29:28.951Z,18.50
2022-10-10T10:32:06.782Z,18.50
2022-10-10T10:34:47.343Z,18.50
2022-10-10T10:37:47.107Z,18.50
2022-10-10T10:40:40.456Z,18.50
2022-10-10T10:43:33.327Z,18.60
2022-10-10T10:46:18.381Z,18.60
2022-10-10T10:49:20.720Z,18.70
2022-10-10T10:52:20.151Z,18.90
2022-10-10T10:55:03.979Z,18.90
2022-10-10T10:58:05.210Z,18.70
2022-10-10T11:01:22.416Z,18.60
2022-10-10T11:05:18.550Z,19.20
2022-10-10T11:07:19.943Z,20.90
2022-10-10T11:10:29.078Z,21.30
2022-10-10T11:13:09.963Z,21.00
2022-10-10T11:19:18.107Z,21.00
2022-10-10T11:22:11.251Z,20.50
2022-10-10T11:25:03.566Z,20.00
2022-10-10T11:27:52.066Z,19.80
2022-10-10T11:30:26.018Z,19.70
2022-10-10T11:33:20.576Z,19.70
2022-10-10T11:36:00.752Z,19.70
2022-10-10T11:38:40.173Z,19.80
2022-10-10T11:41:21.961Z,19.80
2022-10-10T11:44:16.881Z,19.80
2022-10-10T11:46:59.187Z,19.90
2022-10-10T11:50:02.915Z,19.80
2022-10-10T11:52:48.220Z,19.80
2022-10-10T11:55:47.238Z,19.80
2022-10-10T11:58:32.199Z,19.90
2022-10-10T12:01:29.055Z,20.00
2022-10-10T12:04:00.760Z,20.00
2022-10-10T12:06:44.498Z,19.90
2022-10-10T12:09:45.114Z,19.90
2022-10-10T12:12:21.502Z,20.00
2022-10-10T12:14:56.315Z,20.00
2022-10-10T12:17:32.458Z,20.10
2022-10-10T12:20:35.032Z,20.10
2022-10-10T12:23:23.130Z,20.20
2022-10-10T12:25:55.114Z,20.20
2022-10-10T12:28:55.794Z,20.20
2022-10-10T12:31:29.780Z,20.20
2022-10-10T12:34:15.096Z,20.30
2022-10-10T12:37:11.620Z,20.30
2022-10-10T12:40:06.402Z,20.40
2022-10-10T12:43:01.109Z,20.50
2022-10-10T12:45:32.760Z,20.40
2022-10-10T12:48:18.385Z,20.50
2022-10-10T12:51:01.398Z,20.60
2022-10-10T12:53:34.442Z,20.60
2022-10-10T12:56:06.780Z,20.60
2022-10-10T12:58:41.040Z,20.60
2022-10-10T13:01:32.085Z,20.70
2022-10-10T13:04:04.116Z,20.60
2022-10-10T13:06:45.281Z,20.70
2022-10-10T13:09:23.366Z,20.70
2022-10-10T13:12:04.192Z,20.70
2022-10-10T13:14:39.075Z,20.80
2022-10-10T13:17:38.451Z,21.00
2022-10-10T13:20:32.434Z,21.10
2022-10-10T13:23:12.980Z,21.10
2022-10-10T13:25:46.296Z,21.10
2022-10-10T13:28:20.142Z,21.20
2022-10-10T13:30:52.218Z,21.40
2022-10-10T13:33:30.779Z,21.50
2022-10-10T13:36:08.641Z,21.50
2022-10-10T13:38:40.416Z,21.50
2022-10-10T13:41:12.447Z,21.50
2022-10-10T13:43:44.583Z,21.50
2022-10-10T13:46:33.637Z,21.50
2022-10-10T13:49:29.568Z,21.40
2022-10-10T13:52:20.144Z,21.30
2022-10-10T13:54:51.840Z,21.50
2022-10-10T13:57:26.867Z,21.40
2022-10-10T14:00:16.595Z,21.30
2022-10-10T14:02:49.524Z,21.10
2022-10-10T14:05:30.980Z,20.80
2022-10-10T14:08:02.845Z,20.60
2022-10-10T14:10:37.031Z,20.40
2022-10-10T14:13:18.894Z,20.30
2022-10-10T14:15:50.753Z,20.20
2022-10-10T14:18:24.707Z,20.20
2022-10-10T14:20:56.538Z,20.20
2022-10-10T14:23:28.320Z,20.30
2022-10-10T14:26:00.113Z,20.30
2022-10-10T14:28:34.706Z,20.30
2022-10-10T14:31:07.050Z,20.30
2022-10-10T14:33:39.159Z,20.20
2022-10-10T14:36:12.455Z,20.10
2022-10-10T14:38:44.182Z,20.00
2022-10-10T14:41:15.839Z,19.80
2022-10-10T14:43:47.527Z,19.60
2022-10-10T14:46:19.930Z,19.50
2022-10-10T14:48:51.644Z,19.30
2022-10-10T14:51:33.933Z,19.20
2022-10-10T14:54:10.773Z,19.10
2022-10-10T14:57:08.316Z,19.00
2022-10-10T14:59:48.097Z,18.90
2022-10-10T15:02:22.586Z,18.80
2022-10-10T15:04:54.383Z,18.70
2022-10-10T15:07:26.279Z,18.70
2022-10-10T15:12:49.944Z,18.50
2022-10-10T15:15:21.781Z,18.40
2022-10-10T15:17:53.593Z,18.30
2022-10-10T15:20:30.895Z,18.30
2022-10-10T15:23:05.795Z,18.30
2022-10-10T15:25:43.003Z,18.20
2022-10-10T15:28:14.753Z,18.20
2022-10-10T15:30:46.803Z,18.20
2022-10-10T15:33:18.627Z,18.20
2022-10-10T15:36:09.472Z,18.10
2022-10-10T15:38:41.982Z,18.10
2022-10-10T15:41:13.854Z,18.00
2022-10-10T15:43:52.539Z,17.90
2022-10-10T15:46:26.946Z,17.80
2022-10-10T15:49:02.031Z,17.70
2022-10-10T15:51:33.708Z,17.60
2022-10-10T15:54:05.528Z,17.50
2022-10-10T15:56:37.833Z,17.40
2022-10-10T15:59:13.175Z,17.30
2022-10-10T16:01:44.859Z,17.30
2022-10-10T16:04:16.636Z,17.30
2022-10-10T16:06:59.543Z,17.20
2022-10-10T16:09:43.840Z,17.20
2022-10-10T16:12:15.583Z,17.10
2022-10-10T16:14:47.540Z,17.10
2022-10-10T16:17:23.124Z,17.10
2022-10-10T16:19:56.411Z,17.00
2022-10-10T16:22:28.116Z,17.00
2022-10-10T16:27:52.671Z,16.90
2022-10-10T16:30:24.536Z,16.80
2022-10-10T16:32:56.297Z,16.70
2022-10-10T16:35:27.971Z,16.70
2022-10-10T16:38:00.408Z,16.70
2022-10-10T16:40:35.448Z,16.60
2022-10-10T16:43:07.166Z,16.60
2022-10-10T16:45:46.084Z,16.50
2022-10-10T16:48:17.878Z,16.40
2022-10-10T16:50:49.571Z,16.30
2022-10-10T16:53:21.245Z,16.30
2022-10-10T16:55:53.015Z,16.20
2022-10-10T16:58:24.845Z,16.10
2022-10-10T17:00:56.829Z,16.00
2022-10-10T17:03:28.559Z,16.00
2022-10-10T17:06:04.260Z,15.90
2022-10-10T17:08:36.916Z,15.80
2022-10-10T17:11:09.297Z,15.80
2022-10-10T17:13:42.680Z,15.70
2022-10-10T17:19:09.310Z,15.50
2022-10-10T17:21:41.112Z,15.40
2022-10-10T17:24:13.816Z,15.30
2022-10-10T17:26:46.548Z,15.20
2022-10-10T17:29:18.331Z,15.20
2022-10-10T17:31:50.133Z,15.10
2022-10-10T17:34:21.885Z,15.10
2022-10-10T17:36:54.147Z,15.10
2022-10-10T17:39:25.996Z,15.10
2022-10-10T17:41:57.792Z,15.20
2022-10-10T17:44:29.540Z,15.20
2022-10-10T17:47:01.288Z,15.20
2022-10-10T17:49:33.147Z,15.20
2022-10-10T17:52:05.063Z,15.10
2022-10-10T17:54:36.834Z,15.10
2022-10-10T17:57:10.251Z,15.10
2022-10-10T17:59:42.010Z,15.10
2022-10-10T18:02:16.444Z,15.10
2022-10-10T18:04:48.199Z,15.10
2022-10-10T18:07:20.142Z,15.10
2022-10-10T18:09:52.138Z,15.20
2022-10-10T18:12:23.939Z,15.20
2022-10-10T18:14:55.707Z,15.30
2022-10-10T18:17:27.381Z,15.30
2022-10-10T18:19:59.072Z,15.40
2022-10-10T18:22:30.858Z,15.40
2022-10-10T18:25:02.661Z,15.40
2022-10-10T18:27:34.456Z,15.30
2022-10-10T18:30:06.751Z,15.30
2022-10-10T18:32:38.512Z,15.20
2022-10-10T18:35:11.100Z,15.20
2022-10-10T18:37:43.357Z,15.20
2022-10-10T18:40:16.482Z,15.10
2022-10-10T18:42:48.231Z,15.10
2022-10-10T18:45:19.914Z,15.10
2022-10-10T18:47:51.617Z,15.00
2022-10-10T18:50:23.362Z,15.10
2022-10-10T18:52:56.613Z,15.00
2022-10-10T18:55:30.464Z,15.00
2022-10-10T18:58:02.107Z,15.00
2022-10-10T19:00:34.082Z,14.90
2022-10-10T19:03:05.797Z,14.90
2022-10-10T19:05:39.952Z,14.80
2022-10-10T19:08:11.763Z,14.80
2022-10-10T19:10:48.497Z,14.80
2022-10-10T19:13:21.264Z,14.70
2022-10-10T19:15:53.254Z,14.60
2022-10-10T19:18:24.997Z,14.50
2022-10-10T19:21:01.419Z,14.40
2022-10-10T19:23:34.162Z,14.40
2022-10-10T19:26:08.921Z,14.30
2022-10-10T19:28:41.413Z,14.30
2022-10-10T19:31:17.181Z,14.20
2022-10-10T19:33:52.197Z,14.20
2022-10-10T19:36:24.599Z,14.20
2022-10-10T19:38:58.777Z,14.10
2022-10-10T19:41:30.708Z,14.10
2022-10-10T19:44:05.688Z,14.10
2022-10-10T19:46:37.854Z,14.10
2022-10-10T19:49:09.836Z,14.00
2022-10-10T19:51:41.544Z,14.10
2022-10-10T19:54:13.278Z,14.00
2022-10-10T19:56:44.957Z,14.00
2022-10-10T19:59:16.902Z,14.00
2022-10-10T20:01:48.747Z,14.00
2022-10-10T20:04:20.589Z,14.20
2022-10-10T20:06:52.290Z,14.20
2022-10-10T20:09:25.519Z,14.20
2022-10-10T20:11:57.228Z,14.20
2022-10-10T20:14:29.320Z,14.20
2022-10-10T20:17:01.770Z,14.20
2022-10-10T20:19:33.542Z,14.10
2022-10-10T20:22:05.520Z,14.00
2022-10-10T20:24:37.367Z,14.10
2022-10-10T20:27:09.163Z,14.00
2022-10-10T20:29:40.927Z,14.10
2022-10-10T20:32:12.704Z,14.20
2022-10-10T20:34:44.707Z,14.20
2022-10-10T20:37:16.387Z,14.10
2022-10-10T20:39:48.111Z,14.10
2022-10-10T20:42:19.879Z,14.10
2022-10-10T20:44:51.668Z,14.10
2022-10-10T20:47:23.473Z,14.10
2022-10-10T20:49:55.155Z,14.00
2022-10-10T20:52:26.931Z,13.90
2022-10-10T20:55:00.951Z,13.90
2022-10-10T20:57:32.780Z,13.80
2022-10-10T21:00:05.806Z,13.80
2022-10-10T21:02:37.831Z,13.80
2022-10-10T21:05:10.061Z,13.80
2022-10-10T21:07:41.835Z,13.80
2022-10-10T21:10:13.563Z,13.80
2022-10-10T21:12:45.858Z,13.80
2022-10-10T21:15:17.843Z,13.80
2022-10-10T21:17:50.970Z,13.80
2022-10-10T21:20:23.283Z,13.80
2022-10-10T21:22:55.830Z,13.80
2022-10-10T21:25:27.903Z,13.80
2022-10-10T21:28:00.358Z,13.70
2022-10-10T21:30:32.123Z,13.70
2022-10-10T21:33:03.938Z,13.70
2022-10-10T21:35:36.240Z,13.60
2022-10-10T21:38:08.043Z,13.60
2022-10-10T21:40:39.982Z,13.60
2022-10-10T21:43:11.832Z,13.50
2022-10-10T21:45:43.746Z,13.50
2022-10-10T21:48:15.506Z,13.50
2022-10-10T21:50:47.226Z,13.50
2022-10-10T21:53:18.951Z,13.50
2022-10-10T21:55:50.643Z,13.50
2022-10-10T21:58:25.339Z,13.50
2022-10-10T22:00:57.072Z,13.50
2022-10-10T22:03:29.878Z,13.60
2022-10-10T22:06:07.184Z,13.60
2022-10-10T22:08:40.750Z,13.60
2022-10-10T22:11:15.544Z,13.60
2022-10-10T22:13:47.842Z,13.60
2022-10-10T22:16:20.575Z,13.60
2022-10-10T22:18:56.773Z,13.60
2022-10-10T22:21:31.769Z,13.50
2022-10-10T22:24:06.391Z,13.50
2022-10-10T22:26:38.489Z,13.50
2022-10-10T22:29:10.171Z,13.40
2022-10-10T22:31:41.891Z,13.40
2022-10-10T22:34:13.561Z,13.40
2022-10-10T22:36:45.390Z,13.40
2022-10-10T22:39:17.095Z,13.40
2022-10-10T22:41:48.838Z,13.40
2022-10-10T22:44:20.955Z,13.40
2022-10-10T22:46:52.712Z,13.40
2022-10-10T22:49:24.502Z,13.40
2022-10-10T22:51:56.174Z,13.40
2022-10-10T22:54:27.836Z,13.40
2022-10-10T22:56:59.748Z,13.40
2022-10-10T22:59:31.512Z,13.30
2022-10-10T23:02:03.263Z,13.30
2022-10-10T23:04:34.909Z,13.30
2022-10-10T23:07:06.778Z,13.30
2022-10-10T23:09:38.750Z,13.30
2022-10-10T23:12:10.551Z,13.30
2022-10-10T23:14:42.323Z,13.30
2022-10-10T23:17:14.032Z,13.30
2022-10-10T23:19:45.707Z,13.30
2022-10-10T23:22:17.442Z,13.30
2022-10-10T23:24:49.140Z,13.40
2022-10-10T23:27:20.782Z,13.40
2022-10-10T23:29:52.513Z,13.40
2022-10-10T23:32:26.795Z,13.40
2022-10-10T23:34:58.579Z,13.40
2022-10-10T23:37:30.344Z,13.40
2022-10-10T23:40:02.475Z,13.40
2022-10-10T23:42:35.192Z,13.40
2022-10-10T23:45:07.523Z,13.30
2022-10-10T23:47:39.215Z,13.30
2022-10-10T23:50:11.357Z,13.30
2022-10-10T23:52:43.171Z,13.20
2022-10-10T23:55:14.890Z,13.20
2022-10-10T23:57:46.562Z,13.10
